sensor_id;sensor_type;location;lat;lon;timestamp;temperature;humidity
22224;DHT22;11281;52.194;21.006;2023-04-06T00:01:31;1.30;99.90
22224;DHT22;11281;52.194;21.006;2023-04-06T00:05:32;1.30;99.90
22224;DHT22;11281;52.194;21.006;2023-04-06T00:09:34;1.10;99.90
22224;DHT22;11281;52.194;21.006;2023-04-06T00:13:37;1.10;99.90
22224;DHT22;11281;52.194;21.006;2023-04-06T00:17:38;1.20;99.90
22224;DHT22;11281;52.194;21.006;2023-04-06T00:21:40;1.20;99.90
22224;DHT22;11281;52.194;21.006;2023-04-06T00:25:43;1.30;99.90
22224;DHT22;11281;52.194;21.006;2023-04-06T00:29:44;1.30;99.90
22224;DHT22;11281;52.194;21.006;2023-04-06T00:33:48;1.40;99.90
22224;DHT22;11281;52.194;21.006;2023-04-06T00:37:50;1.30;99.90
22224;DHT22;11281;52.194;21.006;2023-04-06T00:41:52;1.20;99.90
22224;DHT22;11281;52.194;21.006;2023-04-06T00:45:54;1.30;99.90
22224;DHT22;11281;52.194;21.006;2023-04-06T00:49:57;1.30;99.90
22224;DHT22;11281;52.194;21.006;2023-04-06T00:53:58;1.30;99.90
22224;DHT22;11281;52.194;21.006;2023-04-06T00:58:00;1.40;99.90
22224;DHT22;11281;52.194;21.006;2023-04-06T01:02:02;1.40;99.90
22224;DHT22;11281;52.194;21.006;2023-04-06T01:06:04;1.40;99.90
22224;DHT22;11281;52.194;21.006;2023-04-06T01:10:06;1.30;99.90
22224;DHT22;11281;52.194;21.006;2023-04-06T01:14:08;1.30;99.90
22224;DHT22;11281;52.194;21.006;2023-04-06T01:18:10;1.30;99.90
22224;DHT22;11281;52.194;21.006;2023-04-06T01:22:18;1.30;99.90
22224;DHT22;11281;52.194;21.006;2023-04-06T01:26:20;1.20;99.90
22224;DHT22;11281;52.194;21.006;2023-04-06T01:30:22;1.20;99.90
22224;DHT22;11281;52.194;21.006;2023-04-06T01:34:23;1.30;99.90
22224;DHT22;11281;52.194;21.006;2023-04-06T01:38:25;1.30;99.90
22224;DHT22;11281;52.194;21.006;2023-04-06T01:42:27;1.30;99.90
22224;DHT22;11281;52.194;21.006;2023-04-06T01:46:29;1.20;99.90
22224;DHT22;11281;52.194;21.006;2023-04-06T01:50:31;1.20;99.90
22224;DHT22;11281;52.194;21.006;2023-04-06T01:54:33;1.20;99.90
22224;DHT22;11281;52.194;21.006;2023-04-06T01:58:35;1.20;99.90
22224;DHT22;11281;52.194;21.006;2023-04-06T02:02:37;1.20;99.90
22224;DHT22;11281;52.194;21.006;2023-04-06T02:06:39;1.20;99.90
22224;DHT22;11281;52.194;21.006;2023-04-06T02:10:41;1.10;99.90
22224;DHT22;11281;52.194;21.006;2023-04-06T02:14:43;1.10;99.90
22224;DHT22;11281;52.194;21.006;2023-04-06T02:18:45;1.00;99.90
22224;DHT22;11281;52.194;21.006;2023-04-06T02:22:47;1.00;99.90
22224;DHT22;11281;52.194;21.006;2023-04-06T02:26:49;0.90;99.90
22224;DHT22;11281;52.194;21.006;2023-04-06T02:30:51;0.80;99.90
22224;DHT22;11281;52.194;21.006;2023-04-06T02:34:53;0.70;99.90
22224;DHT22;11281;52.194;21.006;2023-04-06T02:38:55;0.60;99.90
22224;DHT22;11281;52.194;21.006;2023-04-06T02:42:57;0.40;99.90
22224;DHT22;11281;52.194;21.006;2023-04-06T02:46:59;0.30;99.90
22224;DHT22;11281;52.194;21.006;2023-04-06T02:51:01;0.30;99.90
22224;DHT22;11281;52.194;21.006;2023-04-06T02:55:03;0.20;99.90
22224;DHT22;11281;52.194;21.006;2023-04-06T02:59:05;0.30;99.90
22224;DHT22;11281;52.194;21.006;2023-04-06T03:03:07;0.20;99.90
22224;DHT22;11281;52.194;21.006;2023-04-06T03:07:08;0.20;99.90
22224;DHT22;11281;52.194;21.006;2023-04-06T03:11:10;0.20;99.90
22224;DHT22;11281;52.194;21.006;2023-04-06T03:15:12;0.20;99.90
22224;DHT22;11281;52.194;21.006;2023-04-06T03:19:14;0.10;99.90
22224;DHT22;11281;52.194;21.006;2023-04-06T03:23:16;0.10;99.90
22224;DHT22;11281;52.194;21.006;2023-04-06T03:27:18;0.00;99.90
22224;DHT22;11281;52.194;21.006;2023-04-06T03:31:20;0.00;99.90
22224;DHT22;11281;52.194;21.006;2023-04-06T03:35:22;0.00;99.90
22224;DHT22;11281;52.194;21.006;2023-04-06T03:39:24;0.00;99.90
22224;DHT22;11281;52.194;21.006;2023-04-06T03:43:26;0.00;99.90
22224;DHT22;11281;52.194;21.006;2023-04-06T03:47:28;0.10;99.90
22224;DHT22;11281;52.194;21.006;2023-04-06T03:51:29;0.10;99.90
22224;DHT22;11281;52.194;21.006;2023-04-06T03:55:31;0.10;99.90
22224;DHT22;11281;52.194;21.006;2023-04-06T03:59:33;0.20;99.90
22224;DHT22;11281;52.194;21.006;2023-04-06T04:03:35;0.30;99.90
22224;DHT22;11281;52.194;21.006;2023-04-06T04:07:37;0.30;99.90
22224;DHT22;11281;52.194;21.006;2023-04-06T04:11:39;0.40;99.90
22224;DHT22;11281;52.194;21.006;2023-04-06T04:15:41;0.40;99.90
22224;DHT22;11281;52.194;21.006;2023-04-06T04:19:43;0.50;99.90
22224;DHT22;11281;52.194;21.006;2023-04-06T04:23:45;0.50;99.90
22224;DHT22;11281;52.194;21.006;2023-04-06T04:27:47;0.60;99.90
22224;DHT22;11281;52.194;21.006;2023-04-06T04:31:49;0.60;99.90
22224;DHT22;11281;52.194;21.006;2023-04-06T04:35:51;0.60;99.90
22224;DHT22;11281;52.194;21.006;2023-04-06T04:39:52;0.60;99.90
22224;DHT22;11281;52.194;21.006;2023-04-06T04:43:54;0.60;99.90
22224;DHT22;11281;52.194;21.006;2023-04-06T04:47:56;0.60;99.90
22224;DHT22;11281;52.194;21.006;2023-04-06T04:51:57;0.60;99.90
22224;DHT22;11281;52.194;21.006;2023-04-06T04:55:59;0.70;99.90
22224;DHT22;11281;52.194;21.006;2023-04-06T05:00:00;0.80;99.90
22224;DHT22;11281;52.194;21.006;2023-04-06T05:04:03;0.90;99.90
22224;DHT22;11281;52.194;21.006;2023-04-06T05:08:05;1.00;99.90
22224;DHT22;11281;52.194;21.006;2023-04-06T05:12:07;1.10;99.90
22224;DHT22;11281;52.194;21.006;2023-04-06T05:16:08;1.10;99.90
22224;DHT22;11281;52.194;21.006;2023-04-06T05:20:10;1.10;99.90
22224;DHT22;11281;52.194;21.006;2023-04-06T05:24:12;1.20;99.90
22224;DHT22;11281;52.194;21.006;2023-04-06T05:28:14;1.20;99.90
22224;DHT22;11281;52.194;21.006;2023-04-06T05:32:17;1.40;99.90
22224;DHT22;11281;52.194;21.006;2023-04-06T05:36:23;1.50;99.90
22224;DHT22;11281;52.194;21.006;2023-04-06T05:40:24;1.60;99.90
22224;DHT22;11281;52.194;21.006;2023-04-06T05:44:26;1.90;99.90
22224;DHT22;11281;52.194;21.006;2023-04-06T05:48:28;1.90;99.90
22224;DHT22;11281;52.194;21.006;2023-04-06T05:52:30;2.20;99.90
22224;DHT22;11281;52.194;21.006;2023-04-06T05:56:31;2.30;99.90
22224;DHT22;11281;52.194;21.006;2023-04-06T06:00:33;2.40;99.90
22224;DHT22;11281;52.194;21.006;2023-04-06T06:04:35;2.60;99.90
22224;DHT22;11281;52.194;21.006;2023-04-06T06:08:37;2.70;99.90
22224;DHT22;11281;52.194;21.006;2023-04-06T06:12:39;2.70;99.90
22224;DHT22;11281;52.194;21.006;2023-04-06T06:16:41;2.50;99.90
22224;DHT22;11281;52.194;21.006;2023-04-06T06:20:42;2.70;99.90
22224;DHT22;11281;52.194;21.006;2023-04-06T06:24:44;2.80;99.90
22224;DHT22;11281;52.194;21.006;2023-04-06T06:28:46;2.90;99.90
22224;DHT22;11281;52.194;21.006;2023-04-06T06:32:49;2.90;99.90
22224;DHT22;11281;52.194;21.006;2023-04-06T06:36:51;3.20;99.90
22224;DHT22;11281;52.194;21.006;2023-04-06T06:40:53;2.70;99.90
22224;DHT22;11281;52.194;21.006;2023-04-06T06:44:54;3.00;99.90
22224;DHT22;11281;52.194;21.006;2023-04-06T06:48:58;3.30;99.90
22224;DHT22;11281;52.194;21.006;2023-04-06T06:52:59;3.40;99.90
22224;DHT22;11281;52.194;21.006;2023-04-06T06:57:01;3.40;99.90
22224;DHT22;11281;52.194;21.006;2023-04-06T07:01:03;3.30;99.90
22224;DHT22;11281;52.194;21.006;2023-04-06T07:05:06;3.00;99.90
22224;DHT22;11281;52.194;21.006;2023-04-06T07:09:08;3.20;99.90
22224;DHT22;11281;52.194;21.006;2023-04-06T07:13:09;3.50;99.90
22224;DHT22;11281;52.194;21.006;2023-04-06T07:17:11;3.90;99.90
22224;DHT22;11281;52.194;21.006;2023-04-06T07:21:13;3.80;99.90
22224;DHT22;11281;52.194;21.006;2023-04-06T07:25:15;3.60;99.90
22224;DHT22;11281;52.194;21.006;2023-04-06T07:29:17;3.50;99.90
22224;DHT22;11281;52.194;21.006;2023-04-06T07:33:19;3.60;99.90
22224;DHT22;11281;52.194;21.006;2023-04-06T07:37:20;3.60;99.90
22224;DHT22;11281;52.194;21.006;2023-04-06T07:41:22;3.60;99.90
22224;DHT22;11281;52.194;21.006;2023-04-06T07:45:25;3.50;99.90
22224;DHT22;11281;52.194;21.006;2023-04-06T07:49:26;3.40;99.90
22224;DHT22;11281;52.194;21.006;2023-04-06T07:53:28;3.60;99.90
22224;DHT22;11281;52.194;21.006;2023-04-06T07:57:29;3.60;99.90
22224;DHT22;11281;52.194;21.006;2023-04-06T08:01:31;3.30;99.90
22224;DHT22;11281;52.194;21.006;2023-04-06T08:05:32;3.60;99.90
22224;DHT22;11281;52.194;21.006;2023-04-06T08:09:34;3.30;99.90
22224;DHT22;11281;52.194;21.006;2023-04-06T08:13:36;3.20;99.90
22224;DHT22;11281;52.194;21.006;2023-04-06T08:17:38;3.40;99.90
22224;DHT22;11281;52.194;21.006;2023-04-06T08:21:41;3.50;99.90
22224;DHT22;11281;52.194;21.006;2023-04-06T08:25:43;3.40;99.90
22224;DHT22;11281;52.194;21.006;2023-04-06T08:29:44;3.60;99.90
22224;DHT22;11281;52.194;21.006;2023-04-06T08:33:46;3.30;99.90
22224;DHT22;11281;52.194;21.006;2023-04-06T08:37:48;3.20;99.90
22224;DHT22;11281;52.194;21.006;2023-04-06T08:41:50;3.20;99.90
22224;DHT22;11281;52.194;21.006;2023-04-06T08:45:53;3.50;99.90
22224;DHT22;11281;52.194;21.006;2023-04-06T08:49:54;3.30;99.90
22224;DHT22;11281;52.194;21.006;2023-04-06T08:53:59;3.20;99.90
22224;DHT22;11281;52.194;21.006;2023-04-06T08:58:01;3.20;99.90
22224;DHT22;11281;52.194;21.006;2023-04-06T09:02:04;3.30;99.90
22224;DHT22;11281;52.194;21.006;2023-04-06T09:06:09;3.20;99.90
22224;DHT22;11281;52.194;21.006;2023-04-06T09:10:12;3.20;99.90
22224;DHT22;11281;52.194;21.006;2023-04-06T09:14:14;3.30;99.90
22224;DHT22;11281;52.194;21.006;2023-04-06T09:18:31;3.40;99.90
22224;DHT22;11281;52.194;21.006;2023-04-06T09:22:38;3.80;99.90
22224;DHT22;11281;52.194;21.006;2023-04-06T09:26:47;3.50;99.90
22224;DHT22;11281;52.194;21.006;2023-04-06T09:30:49;3.60;99.90
22224;DHT22;11281;52.194;21.006;2023-04-06T09:34:51;3.40;99.90
22224;DHT22;11281;52.194;21.006;2023-04-06T09:38:57;3.50;99.90
22224;DHT22;11281;52.194;21.006;2023-04-06T09:43:00;3.40;99.90
22224;DHT22;11281;52.194;21.006;2023-04-06T09:47:06;3.10;99.90
22224;DHT22;11281;52.194;21.006;2023-04-06T09:51:10;3.20;99.90
22224;DHT22;11281;52.194;21.006;2023-04-06T09:55:36;3.60;99.90
22224;DHT22;11281;52.194;21.006;2023-04-06T10:00:07;3.30;99.90
22224;DHT22;11281;52.194;21.006;2023-04-06T10:08:27;3.20;99.90
22224;DHT22;11281;52.194;21.006;2023-04-06T10:12:30;3.20;99.90
22224;DHT22;11281;52.194;21.006;2023-04-06T10:16:32;2.90;99.90
22224;DHT22;11281;52.194;21.006;2023-04-06T10:20:39;2.90;99.90
22224;DHT22;11281;52.194;21.006;2023-04-06T10:24:43;3.00;99.90
22224;DHT22;11281;52.194;21.006;2023-04-06T10:28:46;3.10;99.90
22224;DHT22;11281;52.194;21.006;2023-04-06T10:32:48;3.20;99.90
22224;DHT22;11281;52.194;21.006;2023-04-06T10:36:49;3.30;99.90
22224;DHT22;11281;52.194;21.006;2023-04-06T10:40:51;3.10;99.90
22224;DHT22;11281;52.194;21.006;2023-04-06T10:44:53;3.10;99.90
22224;DHT22;11281;52.194;21.006;2023-04-06T10:48:55;3.10;99.90
22224;DHT22;11281;52.194;21.006;2023-04-06T10:53:02;3.20;99.90
22224;DHT22;11281;52.194;21.006;2023-04-06T10:57:03;3.30;99.90
22224;DHT22;11281;52.194;21.006;2023-04-06T11:01:05;3.30;99.90
22224;DHT22;11281;52.194;21.006;2023-04-06T11:05:07;3.30;99.90
22224;DHT22;11281;52.194;21.006;2023-04-06T11:09:09;3.50;99.90
22224;DHT22;11281;52.194;21.006;2023-04-06T11:13:11;3.50;99.90
22224;DHT22;11281;52.194;21.006;2023-04-06T11:17:13;3.50;99.90
22224;DHT22;11281;52.194;21.006;2023-04-06T11:21:14;3.40;99.90
22224;DHT22;11281;52.194;21.006;2023-04-06T11:25:17;3.30;99.90
22224;DHT22;11281;52.194;21.006;2023-04-06T11:29:22;3.20;99.90
22224;DHT22;11281;52.194;21.006;2023-04-06T11:33:24;3.40;99.90
22224;DHT22;11281;52.194;21.006;2023-04-06T11:37:26;3.40;99.90
22224;DHT22;11281;52.194;21.006;2023-04-06T11:41:29;3.40;99.90
22224;DHT22;11281;52.194;21.006;2023-04-06T11:45:41;3.50;99.90
22224;DHT22;11281;52.194;21.006;2023-04-06T11:49:43;3.30;99.90
22224;DHT22;11281;52.194;21.006;2023-04-06T11:53:48;3.50;99.90
22224;DHT22;11281;52.194;21.006;2023-04-06T11:57:50;3.70;99.90
22224;DHT22;11281;52.194;21.006;2023-04-06T12:01:53;3.60;99.90
22224;DHT22;11281;52.194;21.006;2023-04-06T12:05:54;3.60;99.90
22224;DHT22;11281;52.194;21.006;2023-04-06T12:09:56;3.80;99.90
22224;DHT22;11281;52.194;21.006;2023-04-06T12:13:58;3.60;99.90
22224;DHT22;11281;52.194;21.006;2023-04-06T12:18:02;3.60;99.90
22224;DHT22;11281;52.194;21.006;2023-04-06T12:22:04;3.80;99.90
22224;DHT22;11281;52.194;21.006;2023-04-06T12:26:06;3.70;99.90
22224;DHT22;11281;52.194;21.006;2023-04-06T12:30:08;3.70;99.90
22224;DHT22;11281;52.194;21.006;2023-04-06T12:34:10;3.70;99.90
22224;DHT22;11281;52.194;21.006;2023-04-06T12:38:11;3.90;99.90
22224;DHT22;11281;52.194;21.006;2023-04-06T12:42:13;3.80;99.90
22224;DHT22;11281;52.194;21.006;2023-04-06T12:46:15;3.70;99.90
22224;DHT22;11281;52.194;21.006;2023-04-06T12:50:17;3.90;99.90
22224;DHT22;11281;52.194;21.006;2023-04-06T12:54:19;3.80;99.90
22224;DHT22;11281;52.194;21.006;2023-04-06T12:58:22;3.70;99.90
22224;DHT22;11281;52.194;21.006;2023-04-06T13:02:24;4.00;99.90
22224;DHT22;11281;52.194;21.006;2023-04-06T13:06:27;4.00;99.90
22224;DHT22;11281;52.194;21.006;2023-04-06T13:10:30;4.00;99.90
22224;DHT22;11281;52.194;21.006;2023-04-06T13:14:32;3.90;99.90
22224;DHT22;11281;52.194;21.006;2023-04-06T13:18:34;3.80;99.90
22224;DHT22;11281;52.194;21.006;2023-04-06T13:22:36;3.90;99.90
22224;DHT22;11281;52.194;21.006;2023-04-06T13:26:38;3.90;99.90
22224;DHT22;11281;52.194;21.006;2023-04-06T13:30:39;3.80;99.90
22224;DHT22;11281;52.194;21.006;2023-04-06T13:34:41;3.90;99.90
22224;DHT22;11281;52.194;21.006;2023-04-06T13:38:46;4.00;99.90
22224;DHT22;11281;52.194;21.006;2023-04-06T13:42:48;4.00;99.90
22224;DHT22;11281;52.194;21.006;2023-04-06T13:46:49;4.00;99.90
22224;DHT22;11281;52.194;21.006;2023-04-06T13:50:51;4.00;99.90
22224;DHT22;11281;52.194;21.006;2023-04-06T13:54:53;4.00;99.90
22224;DHT22;11281;52.194;21.006;2023-04-06T13:58:55;3.90;99.90
22224;DHT22;11281;52.194;21.006;2023-04-06T14:02:57;4.00;99.90
22224;DHT22;11281;52.194;21.006;2023-04-06T14:06:59;4.00;99.90
22224;DHT22;11281;52.194;21.006;2023-04-06T14:11:02;3.90;99.90
22224;DHT22;11281;52.194;21.006;2023-04-06T14:15:05;3.90;99.90
22224;DHT22;11281;52.194;21.006;2023-04-06T14:19:06;3.90;99.90
22224;DHT22;11281;52.194;21.006;2023-04-06T14:23:08;3.80;99.90
22224;DHT22;11281;52.194;21.006;2023-04-06T14:27:10;3.80;99.90
22224;DHT22;11281;52.194;21.006;2023-04-06T14:31:13;3.80;99.90
22224;DHT22;11281;52.194;21.006;2023-04-06T14:35:15;3.90;99.90
22224;DHT22;11281;52.194;21.006;2023-04-06T14:39:17;3.90;99.90
22224;DHT22;11281;52.194;21.006;2023-04-06T14:43:19;3.80;99.90
22224;DHT22;11281;52.194;21.006;2023-04-06T14:47:21;3.70;99.90
22224;DHT22;11281;52.194;21.006;2023-04-06T14:51:26;3.80;99.90
22224;DHT22;11281;52.194;21.006;2023-04-06T14:55:29;3.80;99.90
22224;DHT22;11281;52.194;21.006;2023-04-06T14:59:31;3.90;99.90
22224;DHT22;11281;52.194;21.006;2023-04-06T15:03:33;3.80;99.90
22224;DHT22;11281;52.194;21.006;2023-04-06T15:07:35;3.70;99.90
22224;DHT22;11281;52.194;21.006;2023-04-06T15:11:36;3.70;99.90
22224;DHT22;11281;52.194;21.006;2023-04-06T15:15:40;3.70;99.90
22224;DHT22;11281;52.194;21.006;2023-04-06T15:19:41;3.60;99.90
22224;DHT22;11281;52.194;21.006;2023-04-06T15:23:43;3.60;99.90
22224;DHT22;11281;52.194;21.006;2023-04-06T15:27:44;3.50;99.90
22224;DHT22;11281;52.194;21.006;2023-04-06T15:31:46;3.60;99.90
22224;DHT22;11281;52.194;21.006;2023-04-06T15:35:48;3.60;99.90
22224;DHT22;11281;52.194;21.006;2023-04-06T15:39:49;3.60;99.90
22224;DHT22;11281;52.194;21.006;2023-04-06T15:43:51;3.60;99.90
22224;DHT22;11281;52.194;21.006;2023-04-06T15:47:53;3.60;99.90
22224;DHT22;11281;52.194;21.006;2023-04-06T15:51:55;3.60;99.90
22224;DHT22;11281;52.194;21.006;2023-04-06T15:56:00;3.60;99.90
22224;DHT22;11281;52.194;21.006;2023-04-06T16:00:03;3.60;99.90
22224;DHT22;11281;52.194;21.006;2023-04-06T16:04:07;3.60;99.90
22224;DHT22;11281;52.194;21.006;2023-04-06T16:08:09;3.60;99.90
22224;DHT22;11281;52.194;21.006;2023-04-06T16:12:11;3.60;99.90
22224;DHT22;11281;52.194;21.006;2023-04-06T16:16:13;3.50;99.90
22224;DHT22;11281;52.194;21.006;2023-04-06T16:20:14;3.50;99.90
22224;DHT22;11281;52.194;21.006;2023-04-06T16:24:16;3.50;99.90
22224;DHT22;11281;52.194;21.006;2023-04-06T16:28:18;3.60;99.90
22224;DHT22;11281;52.194;21.006;2023-04-06T16:32:21;3.50;99.90
22224;DHT22;11281;52.194;21.006;2023-04-06T16:36:23;3.60;99.90
22224;DHT22;11281;52.194;21.006;2023-04-06T16:40:26;3.50;99.90
22224;DHT22;11281;52.194;21.006;2023-04-06T16:44:28;3.50;99.90
22224;DHT22;11281;52.194;21.006;2023-04-06T16:48:30;3.60;99.90
22224;DHT22;11281;52.194;21.006;2023-04-06T16:52:32;3.50;99.90
22224;DHT22;11281;52.194;21.006;2023-04-06T16:56:34;3.60;99.90
22224;DHT22;11281;52.194;21.006;2023-04-06T17:00:36;3.50;99.90
22224;DHT22;11281;52.194;21.006;2023-04-06T17:04:38;3.50;99.90
22224;DHT22;11281;52.194;21.006;2023-04-06T17:08:44;3.50;99.90
22224;DHT22;11281;52.194;21.006;2023-04-06T17:12:48;3.50;99.90
22224;DHT22;11281;52.194;21.006;2023-04-06T17:16:50;3.50;99.90
22224;DHT22;11281;52.194;21.006;2023-04-06T17:20:51;3.50;99.90
22224;DHT22;11281;52.194;21.006;2023-04-06T17:24:53;3.50;99.90
22224;DHT22;11281;52.194;21.006;2023-04-06T17:28:54;3.50;99.90
22224;DHT22;11281;52.194;21.006;2023-04-06T17:32:57;3.50;99.90
22224;DHT22;11281;52.194;21.006;2023-04-06T17:36:58;3.50;99.90
22224;DHT22;11281;52.194;21.006;2023-04-06T17:41:00;3.50;99.90
22224;DHT22;11281;52.194;21.006;2023-04-06T17:45:05;3.50;99.90
22224;DHT22;11281;52.194;21.006;2023-04-06T17:49:07;3.50;99.90
22224;DHT22;11281;52.194;21.006;2023-04-06T17:53:10;3.50;99.90
22224;DHT22;11281;52.194;21.006;2023-04-06T17:57:11;3.40;99.90
22224;DHT22;11281;52.194;21.006;2023-04-06T18:01:13;3.50;99.90
22224;DHT22;11281;52.194;21.006;2023-04-06T18:05:15;3.50;99.90
22224;DHT22;11281;52.194;21.006;2023-04-06T18:09:16;3.40;99.90
22224;DHT22;11281;52.194;21.006;2023-04-06T18:13:18;3.50;99.90
22224;DHT22;11281;52.194;21.006;2023-04-06T18:17:20;3.40;99.90
22224;DHT22;11281;52.194;21.006;2023-04-06T18:21:22;3.40;99.90
22224;DHT22;11281;52.194;21.006;2023-04-06T18:25:24;3.40;99.90
22224;DHT22;11281;52.194;21.006;2023-04-06T18:29:25;3.40;99.90
22224;DHT22;11281;52.194;21.006;2023-04-06T18:33:26;3.40;99.90
22224;DHT22;11281;52.194;21.006;2023-04-06T18:37:28;3.40;99.90
22224;DHT22;11281;52.194;21.006;2023-04-06T18:41:31;3.40;99.90
22224;DHT22;11281;52.194;21.006;2023-04-06T18:45:34;3.40;99.90
22224;DHT22;11281;52.194;21.006;2023-04-06T18:49:38;3.30;99.90
22224;DHT22;11281;52.194;21.006;2023-04-06T18:53:40;3.30;99.90
22224;DHT22;11281;52.194;21.006;2023-04-06T18:57:42;3.30;99.90
22224;DHT22;11281;52.194;21.006;2023-04-06T19:01:43;3.30;99.90
22224;DHT22;11281;52.194;21.006;2023-04-06T19:05:47;3.30;99.90
22224;DHT22;11281;52.194;21.006;2023-04-06T19:09:48;3.30;99.90
22224;DHT22;11281;52.194;21.006;2023-04-06T19:13:52;3.30;99.90
22224;DHT22;11281;52.194;21.006;2023-04-06T19:17:54;3.30;99.90
22224;DHT22;11281;52.194;21.006;2023-04-06T19:21:56;3.30;99.90
22224;DHT22;11281;52.194;21.006;2023-04-06T19:26:00;3.30;99.90
22224;DHT22;11281;52.194;21.006;2023-04-06T19:30:03;3.30;99.90
22224;DHT22;11281;52.194;21.006;2023-04-06T19:34:06;3.30;99.90
22224;DHT22;11281;52.194;21.006;2023-04-06T19:38:08;3.30;99.90
22224;DHT22;11281;52.194;21.006;2023-04-06T19:42:10;3.30;99.90
22224;DHT22;11281;52.194;21.006;2023-04-06T19:46:12;3.30;99.90
22224;DHT22;11281;52.194;21.006;2023-04-06T19:50:15;3.30;99.90
22224;DHT22;11281;52.194;21.006;2023-04-06T19:54:17;3.30;99.90
22224;DHT22;11281;52.194;21.006;2023-04-06T19:58:18;3.30;99.90
22224;DHT22;11281;52.194;21.006;2023-04-06T20:02:21;3.30;99.90
22224;DHT22;11281;52.194;21.006;2023-04-06T20:06:23;3.30;99.90
22224;DHT22;11281;52.194;21.006;2023-04-06T20:10:25;3.30;99.90
22224;DHT22;11281;52.194;21.006;2023-04-06T20:14:28;3.30;99.90
22224;DHT22;11281;52.194;21.006;2023-04-06T20:18:30;3.30;99.90
22224;DHT22;11281;52.194;21.006;2023-04-06T20:22:32;3.30;99.90
22224;DHT22;11281;52.194;21.006;2023-04-06T20:26:34;3.40;99.90
22224;DHT22;11281;52.194;21.006;2023-04-06T20:30:36;3.30;99.90
22224;DHT22;11281;52.194;21.006;2023-04-06T20:34:37;3.40;99.90
22224;DHT22;11281;52.194;21.006;2023-04-06T20:38:39;3.40;99.90
22224;DHT22;11281;52.194;21.006;2023-04-06T20:42:41;3.40;99.90
22224;DHT22;11281;52.194;21.006;2023-04-06T20:46:43;3.40;99.90
22224;DHT22;11281;52.194;21.006;2023-04-06T20:50:45;3.50;99.90
22224;DHT22;11281;52.194;21.006;2023-04-06T20:54:47;3.50;99.90
22224;DHT22;11281;52.194;21.006;2023-04-06T20:58:50;3.50;99.90
22224;DHT22;11281;52.194;21.006;2023-04-06T21:02:55;3.50;99.90
22224;DHT22;11281;52.194;21.006;2023-04-06T21:06:57;3.60;99.90
22224;DHT22;11281;52.194;21.006;2023-04-06T21:11:00;3.50;99.90
22224;DHT22;11281;52.194;21.006;2023-04-06T21:15:02;3.60;99.90
22224;DHT22;11281;52.194;21.006;2023-04-06T21:19:03;3.60;99.90
22224;DHT22;11281;52.194;21.006;2023-04-06T21:23:05;3.60;99.90
22224;DHT22;11281;52.194;21.006;2023-04-06T21:27:07;3.60;99.90
22224;DHT22;11281;52.194;21.006;2023-04-06T21:31:08;3.60;99.90
22224;DHT22;11281;52.194;21.006;2023-04-06T21:35:11;3.70;99.90
22224;DHT22;11281;52.194;21.006;2023-04-06T21:39:12;3.70;99.90
22224;DHT22;11281;52.194;21.006;2023-04-06T21:43:14;3.70;99.90
22224;DHT22;11281;52.194;21.006;2023-04-06T21:47:16;3.70;99.90
22224;DHT22;11281;52.194;21.006;2023-04-06T21:51:19;3.70;99.90
22224;DHT22;11281;52.194;21.006;2023-04-06T21:55:22;3.80;99.90
22224;DHT22;11281;52.194;21.006;2023-04-06T21:59:23;3.70;99.90
22224;DHT22;11281;52.194;21.006;2023-04-06T22:03:25;3.80;99.90
22224;DHT22;11281;52.194;21.006;2023-04-06T22:07:26;3.80;99.90
22224;DHT22;11281;52.194;21.006;2023-04-06T22:11:28;3.80;99.90
22224;DHT22;11281;52.194;21.006;2023-04-06T22:15:29;3.90;99.90
22224;DHT22;11281;52.194;21.006;2023-04-06T22:19:31;3.90;99.90
22224;DHT22;11281;52.194;21.006;2023-04-06T22:23:34;3.90;99.90
22224;DHT22;11281;52.194;21.006;2023-04-06T22:27:36;3.90;99.90
22224;DHT22;11281;52.194;21.006;2023-04-06T22:31:38;3.90;99.90
22224;DHT22;11281;52.194;21.006;2023-04-06T22:35:40;3.90;99.90
22224;DHT22;11281;52.194;21.006;2023-04-06T22:39:41;4.00;99.90
22224;DHT22;11281;52.194;21.006;2023-04-06T22:43:43;4.00;99.90
22224;DHT22;11281;52.194;21.006;2023-04-06T22:47:45;4.00;99.90
22224;DHT22;11281;52.194;21.006;2023-04-06T22:51:47;4.00;99.90
22224;DHT22;11281;52.194;21.006;2023-04-06T22:55:52;4.10;99.90
22224;DHT22;11281;52.194;21.006;2023-04-06T22:59:54;4.10;99.90
22224;DHT22;11281;52.194;21.006;2023-04-06T23:03:59;4.10;99.90
22224;DHT22;11281;52.194;21.006;2023-04-06T23:08:00;4.20;99.90
22224;DHT22;11281;52.194;21.006;2023-04-06T23:12:02;4.20;99.90
22224;DHT22;11281;52.194;21.006;2023-04-06T23:16:04;4.20;99.90
22224;DHT22;11281;52.194;21.006;2023-04-06T23:20:08;4.30;99.90
22224;DHT22;11281;52.194;21.006;2023-04-06T23:24:10;4.30;99.90
22224;DHT22;11281;52.194;21.006;2023-04-06T23:28:12;4.30;99.90
22224;DHT22;11281;52.194;21.006;2023-04-06T23:32:14;4.30;99.90
22224;DHT22;11281;52.194;21.006;2023-04-06T23:36:16;4.40;99.90
22224;DHT22;11281;52.194;21.006;2023-04-06T23:40:18;4.40;99.90
22224;DHT22;11281;52.194;21.006;2023-04-06T23:44:19;4.40;99.90
22224;DHT22;11281;52.194;21.006;2023-04-06T23:48:21;4.50;99.90
22224;DHT22;11281;52.194;21.006;2023-04-06T23:52:22;4.50;99.90
22224;DHT22;11281;52.194;21.006;2023-04-06T23:56:24;4.50;99.90
